Terminal Aerodrome Forecast
Issued by NWS

Home | Current Version | Previous Version | Text Only | Print | Product List | Glossary On
Versions: 1 2 3 4 5 6 7 8 9 10 11 12 13 14 15 16 17 18 19
000
FTUS46 KMTR 251300 AAA
TAFMRY
TAF AMD
KMRY 251347Z 2514/2612 VRB03KT P6SM SCT007 OVC014
      TEMPO 2514/2518 BKN007 OVC012
     FM251800 26008KT P6SM OVC015
     FM260400 23005KT P6SM OVC008=

USA.gov is the U.S. government's official web portal to all federal, state and local government web resources and services.